createdAt,value
2023-04-08T00:00:32.716Z,141.30
2023-04-08T00:02:59.425Z,70.07
2023-04-08T00:05:26.246Z,66.65
2023-04-08T00:07:53.175Z,91.95
2023-04-08T00:10:20.317Z,70.40
2023-04-08T00:12:48.261Z,66.05
2023-04-08T00:15:15.054Z,115.63
2023-04-08T00:17:43.053Z,83.25
2023-04-08T00:20:10.068Z,70.30
2023-04-08T00:22:37.002Z,52.08
2023-04-08T00:25:06.727Z,95.15
2023-04-08T00:27:33.652Z,79.07
2023-04-08T00:30:00.369Z,182.90
2023-04-08T00:32:29.442Z,96.95
2023-04-08T00:34:56.517Z,120.57
2023-04-08T00:37:23.253Z,133.80
2023-04-08T00:39:50.478Z,82.72
2023-04-08T00:42:17.448Z,52.80
2023-04-08T00:44:44.077Z,116.55
2023-04-08T00:47:14.914Z,338.63
2023-04-08T00:49:41.964Z,448.35
2023-04-08T00:52:08.690Z,258.50
2023-04-08T00:54:37.108Z,390.17
2023-04-08T00:57:05.219Z,150.48
2023-04-08T00:59:33.497Z,128.98
2023-04-08T01:02:19.681Z,240.77
2023-04-08T01:05:00.500Z,281.27
2023-04-08T01:07:38.462Z,221.85
2023-04-08T01:10:23.124Z,176.63
2023-04-08T01:13:01.782Z,236.80
2023-04-08T01:18:00.529Z,297.23
2023-04-08T01:20:29.356Z,211.88
2023-04-08T01:23:31.428Z,303.55
2023-04-08T01:25:58.490Z,287.83
2023-04-08T01:28:29.168Z,238.45
2023-04-08T01:30:58.276Z,307.67
2023-04-08T01:33:27.475Z,126.88
2023-04-08T01:35:57.449Z,195.13
2023-04-08T01:38:26.654Z,113.85
2023-04-08T01:40:55.712Z,259.70
2023-04-08T01:43:23.620Z,131.93
2023-04-08T01:45:54.435Z,347.57
2023-04-08T01:48:22.166Z,149.68
2023-04-08T01:50:51.275Z,274.35
2023-04-08T01:53:18.364Z,462.90
2023-04-08T01:55:46.034Z,262.80
2023-04-08T01:58:18.279Z,259.63
2023-04-08T02:00:46.496Z,484.25
2023-04-08T02:03:14.710Z,378.73
2023-04-08T02:05:42.590Z,127.78
2023-04-08T02:08:09.331Z,220.95
2023-04-08T02:10:35.990Z,166.05
2023-04-08T02:13:03.421Z,213.25
2023-04-08T02:15:38.439Z,180.20
2023-04-08T02:18:26.508Z,100.07
2023-04-08T02:21:11.262Z,354.50
2023-04-08T02:23:39.913Z,169.23
2023-04-08T02:26:16.348Z,195.68
2023-04-08T02:28:43.421Z,153.15
2023-04-08T02:31:15.698Z,138.60
2023-04-08T02:33:44.071Z,180.50
2023-04-08T02:36:12.416Z,116.45
2023-04-08T02:38:39.135Z,201.05
2023-04-08T02:41:05.798Z,85.22
2023-04-08T02:43:32.587Z,148.15
2023-04-08T02:46:03.376Z,152.10
2023-04-08T02:48:31.133Z,151.52
2023-04-08T02:50:57.783Z,119.88
2023-04-08T02:53:24.696Z,197.35
2023-04-08T02:55:51.439Z,128.10
2023-04-08T02:58:18.170Z,129.75
2023-04-08T03:00:45.128Z,103.10
2023-04-08T03:03:12.015Z,128.10
2023-04-08T03:05:38.821Z,71.75
2023-04-08T03:08:06.849Z,202.23
2023-04-08T03:10:33.644Z,125.85
2023-04-08T03:13:00.583Z,128.25
2023-04-08T03:15:27.461Z,103.28
2023-04-08T03:17:54.284Z,69.80
2023-04-08T03:20:23.852Z,93.28
2023-04-08T03:22:50.751Z,64.13
2023-04-08T03:25:17.500Z,217.57
2023-04-08T03:27:44.336Z,124.63
2023-04-08T03:30:11.572Z,227.38
2023-04-08T03:32:38.496Z,143.13
2023-04-08T03:35:06.337Z,144.98
2023-04-08T03:37:33.112Z,181.70
2023-04-08T03:40:00.128Z,205.63
2023-04-08T03:42:27.241Z,142.88
2023-04-08T03:44:53.971Z,63.33
2023-04-08T03:47:20.671Z,114.32
2023-04-08T03:49:47.440Z,72.15
2023-04-08T03:52:14.176Z,96.03
2023-04-08T03:54:41.092Z,173.98
2023-04-08T03:57:07.870Z,143.82
2023-04-08T03:59:36.390Z,104.03
2023-04-08T04:02:03.296Z,138.68
2023-04-08T04:04:30.114Z,128.93
2023-04-08T04:06:56.897Z,120.93
2023-04-08T04:09:23.861Z,53.05
2023-04-08T04:11:50.670Z,208.13
2023-04-08T04:14:17.356Z,137.48
2023-04-08T04:16:44.000Z,102.55
2023-04-08T04:19:11.045Z,156.73
2023-04-08T04:21:37.699Z,131.25
2023-04-08T04:24:04.675Z,216.48
2023-04-08T04:26:31.401Z,239.65
2023-04-08T04:28:58.098Z,97.13
2023-04-08T04:31:28.378Z,44.80
2023-04-08T04:33:55.542Z,38.85
2023-04-08T04:36:22.464Z,88.55
2023-04-08T04:38:50.684Z,185.45
2023-04-08T04:41:17.850Z,85.20
2023-04-08T04:43:44.672Z,92.40
2023-04-08T04:46:11.450Z,52.42
2023-04-08T04:48:38.224Z,23.90
2023-04-08T04:51:05.183Z,56.53
2023-04-08T04:53:32.011Z,51.72
2023-04-08T04:56:01.862Z,37.92
2023-04-08T04:58:29.748Z,23.15
2023-04-08T05:00:57.002Z,45.50
2023-04-08T05:03:24.085Z,37.00
2023-04-08T05:05:54.930Z,21.67
2023-04-08T05:08:21.910Z,18.95
2023-04-08T05:10:52.063Z,14.18
2023-04-08T05:13:18.927Z,12.80
2023-04-08T05:15:46.023Z,23.67
2023-04-08T05:18:13.083Z,13.02
2023-04-08T05:20:39.888Z,11.77
2023-04-08T05:23:07.719Z,11.95
2023-04-08T05:25:34.639Z,11.77
2023-04-08T05:28:01.379Z,12.10
2023-04-08T05:30:28.146Z,11.20
2023-04-08T05:32:54.959Z,12.02
2023-04-08T05:35:22.100Z,11.65
2023-04-08T05:37:48.817Z,11.40
2023-04-08T05:40:15.734Z,11.55
2023-04-08T05:42:42.967Z,11.43
2023-04-08T05:45:10.326Z,11.25
2023-04-08T05:47:37.060Z,11.65
2023-04-08T05:50:03.969Z,10.93
2023-04-08T05:52:30.740Z,10.65
2023-04-08T05:54:57.472Z,11.70
2023-04-08T05:57:24.184Z,11.07
2023-04-08T05:59:51.046Z,10.13
2023-04-08T06:02:17.765Z,11.32
2023-04-08T06:04:44.668Z,10.82
2023-04-08T06:07:11.481Z,10.98
2023-04-08T06:09:38.184Z,11.57
2023-04-08T06:12:05.475Z,11.90
2023-04-08T06:14:32.133Z,12.18
2023-04-08T06:16:58.902Z,12.30
2023-04-08T06:19:25.661Z,13.57
2023-04-08T06:21:52.331Z,13.38
2023-04-08T06:24:19.976Z,12.88
2023-04-08T06:26:48.014Z,13.02
2023-04-08T06:29:15.436Z,12.60
2023-04-08T06:31:42.647Z,14.13
2023-04-08T06:34:09.736Z,12.98
2023-04-08T06:36:36.922Z,12.77
2023-04-08T06:39:04.515Z,13.00
2023-04-08T06:41:31.332Z,14.15
2023-04-08T06:43:58.117Z,14.20
2023-04-08T06:46:25.632Z,13.27
2023-04-08T06:48:52.805Z,13.43
2023-04-08T06:51:19.672Z,14.45
2023-04-08T06:53:46.679Z,13.52
2023-04-08T06:56:13.341Z,13.70
2023-04-08T06:58:40.046Z,13.45
2023-04-08T07:01:06.796Z,13.45
2023-04-08T07:03:33.567Z,13.50
2023-04-08T07:06:00.413Z,14.80
2023-04-08T07:08:27.320Z,14.10
2023-04-08T07:10:54.141Z,13.23
2023-04-08T07:13:20.845Z,13.43
2023-04-08T07:15:47.494Z,13.95
2023-04-08T07:18:14.226Z,14.18
2023-04-08T07:20:41.948Z,14.38
2023-04-08T07:23:08.664Z,13.18
2023-04-08T07:25:35.580Z,14.35
2023-04-08T07:28:02.277Z,14.68
2023-04-08T07:30:29.247Z,14.15
2023-04-08T07:32:59.320Z,14.18
2023-04-08T07:35:27.895Z,14.95
2023-04-08T07:37:55.075Z,13.68
2023-04-08T07:40:22.277Z,14.15
2023-04-08T07:42:49.284Z,14.65
2023-04-08T07:45:16.121Z,13.85
2023-04-08T07:47:43.859Z,12.60
2023-04-08T07:50:11.029Z,11.88
2023-04-08T07:52:37.697Z,11.50
2023-04-08T07:55:05.863Z,10.98
2023-04-08T07:57:32.857Z,11.40
2023-04-08T07:59:59.814Z,10.45
2023-04-08T08:02:26.717Z,12.20
2023-04-08T08:04:53.531Z,10.77
2023-04-08T08:07:20.265Z,10.63
2023-04-08T08:09:46.946Z,11.20
2023-04-08T08:12:22.181Z,10.43
2023-04-08T08:14:49.325Z,10.55
2023-04-08T08:17:16.440Z,10.65
2023-04-08T08:19:43.535Z,9.68
2023-04-08T08:22:12.520Z,9.68
2023-04-08T08:24:39.352Z,8.85
2023-04-08T08:27:06.751Z,10.68
2023-04-08T08:29:33.838Z,9.50
2023-04-08T08:32:00.941Z,8.27
2023-04-08T08:34:28.291Z,7.93
2023-04-08T08:36:55.944Z,9.60
2023-04-08T08:39:23.109Z,8.83
2023-04-08T08:41:50.272Z,8.38
2023-04-08T08:44:17.471Z,10.60
2023-04-08T08:46:45.391Z,8.43
2023-04-08T08:49:13.176Z,8.52
2023-04-08T08:51:42.105Z,8.87
2023-04-08T08:54:09.224Z,9.25
2023-04-08T08:56:36.450Z,8.88
2023-04-08T08:59:03.589Z,9.15
2023-04-08T09:01:37.939Z,11.07
2023-04-08T09:04:19.879Z,9.43
2023-04-08T09:06:50.146Z,9.00
2023-04-08T09:09:17.694Z,9.88
2023-04-08T09:11:48.066Z,9.10
2023-04-08T09:14:25.511Z,9.40
2023-04-08T09:16:53.245Z,9.45
2023-04-08T09:19:20.760Z,9.48
2023-04-08T09:22:04.787Z,8.93
2023-04-08T09:24:33.023Z,9.10
2023-04-08T09:27:00.931Z,9.02
2023-04-08T09:29:30.529Z,8.18
2023-04-08T09:32:02.318Z,8.82
2023-04-08T09:34:32.468Z,8.52
2023-04-08T09:36:59.649Z,8.32
2023-04-08T09:39:26.766Z,9.82
2023-04-08T09:41:54.917Z,10.23
2023-04-08T09:44:23.132Z,9.05
2023-04-08T09:46:50.357Z,10.30
2023-04-08T09:49:27.032Z,11.20
2023-04-08T09:52:13.314Z,9.82
2023-04-08T09:54:57.842Z,10.45
2023-04-08T09:57:50.790Z,9.38
2023-04-08T10:00:18.381Z,10.07
2023-04-08T10:03:00.647Z,10.15
2023-04-08T10:05:28.374Z,10.27
2023-04-08T10:07:57.364Z,10.33
2023-04-08T10:10:24.626Z,10.07
2023-04-08T10:12:51.991Z,13.82
2023-04-08T10:15:29.324Z,10.35
2023-04-08T10:17:57.491Z,10.98
2023-04-08T10:20:36.878Z,10.40
2023-04-08T10:23:07.845Z,9.82
2023-04-08T10:25:38.456Z,11.40
2023-04-08T10:28:12.000Z,11.10
2023-04-08T10:30:40.061Z,11.07
2023-04-08T10:33:11.134Z,10.50
2023-04-08T10:35:42.284Z,16.38
2023-04-08T10:38:09.641Z,9.88
2023-04-08T10:40:41.538Z,10.40
2023-04-08T10:43:09.530Z,10.70
2023-04-08T10:45:36.664Z,9.75
2023-04-08T10:48:16.457Z,9.20
2023-04-08T10:50:45.541Z,10.55
2023-04-08T10:53:12.739Z,10.40
2023-04-08T10:55:39.902Z,9.82
2023-04-08T10:58:09.442Z,11.45
2023-04-08T11:00:38.205Z,10.05
2023-04-08T11:03:06.582Z,11.00
2023-04-08T11:05:34.167Z,10.73
2023-04-08T11:08:01.478Z,9.35
2023-04-08T11:10:29.150Z,10.40
2023-04-08T11:12:56.768Z,9.40
2023-04-08T11:15:25.424Z,10.20
2023-04-08T11:17:53.558Z,9.63
2023-04-08T11:20:20.861Z,9.70
2023-04-08T11:22:48.563Z,9.25
2023-04-08T11:25:15.832Z,10.80
2023-04-08T11:27:43.013Z,10.35
2023-04-08T11:30:11.775Z,10.70
2023-04-08T11:32:39.051Z,10.27
2023-04-08T11:35:06.436Z,10.77
2023-04-08T11:37:40.950Z,10.73
2023-04-08T11:40:09.187Z,11.00
2023-04-08T11:42:36.308Z,11.65
2023-04-08T11:45:10.345Z,11.63
2023-04-08T11:47:37.625Z,10.82
2023-04-08T11:50:05.107Z,11.13
2023-04-08T11:52:45.695Z,10.80
2023-04-08T11:55:13.155Z,10.45
2023-04-08T11:57:40.381Z,10.82
2023-04-08T12:00:07.927Z,10.65
2023-04-08T12:02:35.369Z,10.32
2023-04-08T12:05:02.748Z,10.40
2023-04-08T12:07:29.870Z,10.93
2023-04-08T12:09:56.998Z,9.90
2023-04-08T12:12:24.129Z,11.07
2023-04-08T12:14:51.262Z,10.43
2023-04-08T12:17:18.328Z,10.32
2023-04-08T12:19:45.444Z,9.57
2023-04-08T12:22:12.634Z,10.65
2023-04-08T12:24:39.784Z,11.05
2023-04-08T12:27:06.855Z,9.90
2023-04-08T12:29:34.401Z,10.77
2023-04-08T12:32:02.566Z,10.52
2023-04-08T12:34:29.858Z,11.05
2023-04-08T12:36:56.999Z,9.95
2023-04-08T12:39:24.084Z,9.52
2023-04-08T12:41:51.238Z,10.23
2023-04-08T12:44:19.202Z,10.45
2023-04-08T12:46:46.438Z,9.10
2023-04-08T12:49:13.659Z,9.13
2023-04-08T12:51:40.813Z,9.43
2023-04-08T12:54:08.068Z,9.10
2023-04-08T12:56:35.621Z,11.05
2023-04-08T12:59:02.824Z,10.07
2023-04-08T13:01:30.766Z,9.95
2023-04-08T13:03:58.374Z,9.50
2023-04-08T13:06:25.889Z,9.25
2023-04-08T13:08:53.284Z,8.45
2023-04-08T13:11:21.380Z,8.68
2023-04-08T13:13:48.664Z,9.68
2023-04-08T13:16:15.888Z,9.13
2023-04-08T13:18:43.510Z,8.30
2023-04-08T13:21:10.630Z,8.43
2023-04-08T13:23:38.932Z,8.00
2023-04-08T13:26:06.717Z,7.68
2023-04-08T13:28:38.711Z,7.68
2023-04-08T13:31:12.009Z,8.25
2023-04-08T13:33:39.247Z,8.95
2023-04-08T13:36:06.478Z,8.23
2023-04-08T13:38:33.632Z,8.93
2023-04-08T13:41:00.708Z,8.73
2023-04-08T13:43:27.867Z,8.10
2023-04-08T13:45:55.093Z,8.30
2023-04-08T13:48:22.279Z,8.10
2023-04-08T13:50:49.372Z,7.25
2023-04-08T13:53:17.931Z,7.80
2023-04-08T13:55:45.288Z,8.55
2023-04-08T13:58:22.860Z,8.88
2023-04-08T14:00:51.725Z,8.93
2023-04-08T14:03:20.194Z,8.70
2023-04-08T14:05:47.503Z,9.52
2023-04-08T14:08:14.723Z,8.52
2023-04-08T14:10:42.252Z,10.30
2023-04-08T14:13:09.671Z,8.67
2023-04-08T14:15:36.502Z,9.77
2023-04-08T14:18:03.410Z,8.88
2023-04-08T14:20:30.350Z,9.43
2023-04-08T14:22:57.570Z,9.48
2023-04-08T14:25:24.902Z,10.20
2023-04-08T14:27:58.530Z,8.55
2023-04-08T14:30:27.213Z,9.77
2023-04-08T14:32:54.907Z,9.40
2023-04-08T14:35:22.318Z,8.68
2023-04-08T14:37:49.420Z,9.98
2023-04-08T14:40:16.460Z,9.38
2023-04-08T14:42:45.519Z,8.68
2023-04-08T14:45:13.270Z,8.85
2023-04-08T14:47:40.769Z,9.93
2023-04-08T14:50:08.365Z,9.52
2023-04-08T14:52:35.270Z,11.88
2023-04-08T14:55:02.974Z,11.50
2023-04-08T14:57:30.348Z,12.17
2023-04-08T14:59:57.568Z,10.93
2023-04-08T15:02:24.814Z,12.18
2023-04-08T15:04:52.087Z,14.82
2023-04-08T15:07:19.233Z,16.23
2023-04-08T15:09:46.392Z,16.90
2023-04-08T15:12:13.768Z,17.33
2023-04-08T15:14:41.010Z,13.85
2023-04-08T15:17:08.699Z,11.90
2023-04-08T15:19:35.882Z,11.40
2023-04-08T15:22:03.048Z,11.27
2023-04-08T15:24:30.283Z,11.70
2023-04-08T15:26:57.605Z,12.15
2023-04-08T15:29:25.619Z,11.18
2023-04-08T15:31:52.717Z,11.07
2023-04-08T15:34:19.853Z,12.70
2023-04-08T15:36:47.547Z,11.48
2023-04-08T15:39:14.871Z,10.77
2023-04-08T15:41:42.245Z,11.95
2023-04-08T15:44:09.408Z,11.50
2023-04-08T15:46:37.984Z,11.68
2023-04-08T15:49:05.366Z,12.43
2023-04-08T15:51:33.008Z,11.52
2023-04-08T15:54:01.344Z,11.87
2023-04-08T15:56:29.602Z,13.20
2023-04-08T15:58:57.441Z,11.93
2023-04-08T16:01:24.589Z,12.10
2023-04-08T16:03:51.908Z,12.60
2023-04-08T16:06:19.072Z,12.55
2023-04-08T16:08:47.166Z,12.15
2023-04-08T16:11:14.396Z,11.80
2023-04-08T16:13:42.471Z,12.55
2023-04-08T16:16:09.776Z,12.73
2023-04-08T16:18:38.198Z,13.13
2023-04-08T16:21:05.992Z,13.15
2023-04-08T16:23:34.120Z,14.40
2023-04-08T16:26:01.771Z,14.80
2023-04-08T16:28:28.928Z,13.75
2023-04-08T16:30:56.539Z,14.48
2023-04-08T16:33:29.755Z,16.30
2023-04-08T16:36:00.822Z,14.00
2023-04-08T16:38:28.023Z,15.35
2023-04-08T16:40:58.530Z,15.25
2023-04-08T16:43:25.977Z,15.15
2023-04-08T16:45:54.284Z,14.57
2023-04-08T16:48:22.343Z,15.73
2023-04-08T16:50:49.483Z,15.52
2023-04-08T16:53:16.625Z,16.23
2023-04-08T16:55:43.740Z,16.13
2023-04-08T16:58:10.945Z,15.38
2023-04-08T17:00:39.609Z,15.65
2023-04-08T17:03:07.313Z,16.27
2023-04-08T17:05:34.707Z,16.80
2023-04-08T17:08:02.455Z,15.57
2023-04-08T17:10:29.535Z,16.17
2023-04-08T17:12:57.809Z,15.25
2023-04-08T17:15:24.628Z,15.38
2023-04-08T17:17:51.497Z,15.48
2023-04-08T17:20:18.241Z,16.17
2023-04-08T17:22:44.949Z,16.20
2023-04-08T17:25:12.244Z,16.45
2023-04-08T17:27:39.026Z,15.68
2023-04-08T17:30:06.376Z,42.47
2023-04-08T17:32:33.093Z,48.88
2023-04-08T17:34:59.846Z,23.85
2023-04-08T17:37:26.577Z,16.88
2023-04-08T17:39:53.242Z,15.35
2023-04-08T17:42:22.769Z,15.43
2023-04-08T17:44:50.605Z,16.35
2023-04-08T17:47:17.299Z,15.27
2023-04-08T17:49:44.973Z,15.05
2023-04-08T17:52:11.743Z,15.50
2023-04-08T17:54:38.538Z,16.63
2023-04-08T17:57:05.396Z,17.45
2023-04-08T17:59:32.206Z,16.67
2023-04-08T18:01:58.996Z,17.42
2023-04-08T18:04:25.858Z,17.38
2023-04-08T18:06:52.567Z,16.63
2023-04-08T18:09:19.349Z,16.98
2023-04-08T18:11:46.030Z,17.92
2023-04-08T18:14:12.783Z,17.90
2023-04-08T18:16:39.513Z,16.75
2023-04-08T18:19:06.275Z,17.92
2023-04-08T18:21:32.933Z,17.85
2023-04-08T18:23:59.569Z,17.63
2023-04-08T18:26:28.240Z,17.17
2023-04-08T18:28:55.010Z,17.30
2023-04-08T18:31:22.179Z,17.48
2023-04-08T18:33:49.369Z,18.27
2023-04-08T18:36:17.427Z,18.45
2023-04-08T18:38:44.852Z,16.67
2023-04-08T18:41:13.238Z,17.00
2023-04-08T18:43:40.309Z,17.52
2023-04-08T18:46:09.233Z,17.13
2023-04-08T18:48:36.003Z,17.60
2023-04-08T18:51:02.776Z,17.42
2023-04-08T18:53:29.477Z,16.92
2023-04-08T18:55:56.264Z,17.52
2023-04-08T18:58:22.971Z,16.52
2023-04-08T19:00:49.830Z,16.67
2023-04-08T19:03:17.074Z,18.00
2023-04-08T19:05:43.949Z,18.25
2023-04-08T19:08:10.806Z,17.13
2023-04-08T19:10:37.552Z,17.63
2023-04-08T19:13:04.297Z,16.55
2023-04-08T19:15:31.298Z,17.15
2023-04-08T19:17:59.107Z,16.73
2023-04-08T19:20:27.168Z,17.80
2023-04-08T19:22:53.958Z,16.55
2023-04-08T19:25:20.934Z,17.15
2023-04-08T19:27:47.752Z,16.67
2023-04-08T19:30:14.509Z,17.63
2023-04-08T19:32:42.715Z,18.05
2023-04-08T19:35:11.765Z,16.88
2023-04-08T19:37:38.429Z,16.70
2023-04-08T19:40:06.825Z,17.02
2023-04-08T19:42:33.625Z,20.67
2023-04-08T19:45:03.832Z,17.60
2023-04-08T19:47:30.601Z,18.88
2023-04-08T19:49:58.262Z,19.00
2023-04-08T19:52:25.680Z,19.70
2023-04-08T19:54:53.163Z,20.60
2023-04-08T19:57:20.589Z,21.15
2023-04-08T19:59:50.304Z,21.60
2023-04-08T20:02:17.249Z,20.75
2023-04-08T20:04:45.514Z,21.35
2023-04-08T20:07:15.372Z,21.52
2023-04-08T20:09:42.082Z,20.60
2023-04-08T20:12:09.046Z,20.65
2023-04-08T20:14:38.788Z,20.45
2023-04-08T20:17:05.490Z,19.90
2023-04-08T20:19:32.627Z,18.55
2023-04-08T20:21:59.358Z,20.05
2023-04-08T20:24:26.312Z,18.65
2023-04-08T20:26:53.433Z,18.25
2023-04-08T20:29:20.679Z,19.73
2023-04-08T20:31:48.086Z,19.35
2023-04-08T20:34:15.359Z,19.45
2023-04-08T20:36:42.444Z,20.35
2023-04-08T20:39:12.635Z,18.92
2023-04-08T20:41:39.486Z,19.58
2023-04-08T20:44:07.022Z,19.40
2023-04-08T20:46:35.073Z,19.53
2023-04-08T20:49:03.461Z,18.95
2023-04-08T20:51:31.128Z,18.92
2023-04-08T20:53:58.285Z,18.30
2023-04-08T20:56:26.476Z,19.73
2023-04-08T20:58:53.982Z,20.15
2023-04-08T21:01:23.932Z,18.75
2023-04-08T21:03:51.248Z,19.38
2023-04-08T21:06:19.020Z,19.40
2023-04-08T21:08:46.420Z,21.48
2023-04-08T21:11:13.780Z,21.25
2023-04-08T21:13:40.667Z,20.42
2023-04-08T21:16:08.827Z,19.30
2023-04-08T21:18:38.801Z,19.08
2023-04-08T21:21:05.804Z,19.42
2023-04-08T21:23:32.560Z,19.73
2023-04-08T21:26:00.351Z,19.13
2023-04-08T21:28:28.498Z,18.33
2023-04-08T21:30:55.739Z,18.85
2023-04-08T21:33:23.084Z,19.08
2023-04-08T21:35:49.898Z,18.92
2023-04-08T21:38:16.610Z,19.25
2023-04-08T21:40:43.292Z,19.08
2023-04-08T21:43:09.964Z,19.95
2023-04-08T21:45:37.189Z,19.35
2023-04-08T21:48:04.362Z,20.10
2023-04-08T21:50:32.393Z,18.45
2023-04-08T21:52:59.581Z,19.13
2023-04-08T21:55:27.120Z,19.38
2023-04-08T21:57:54.228Z,17.75
2023-04-08T22:00:21.411Z,18.73
2023-04-08T22:02:48.651Z,19.05
2023-04-08T22:05:16.073Z,18.90
2023-04-08T22:07:43.337Z,19.27
2023-04-08T22:10:10.541Z,18.50
2023-04-08T22:12:37.636Z,17.52
2023-04-08T22:15:04.966Z,18.73
2023-04-08T22:17:32.322Z,18.73
2023-04-08T22:19:59.470Z,19.15
2023-04-08T22:22:27.587Z,18.55
2023-04-08T22:24:54.710Z,19.85
2023-04-08T22:27:21.766Z,19.27
2023-04-08T22:29:48.499Z,20.45
2023-04-08T22:32:15.526Z,19.35
2023-04-08T22:34:42.185Z,19.45
2023-04-08T22:37:08.937Z,19.80
2023-04-08T22:39:35.585Z,20.80
2023-04-08T22:42:02.397Z,23.08
2023-04-08T22:44:29.249Z,23.60
2023-04-08T22:46:56.221Z,22.60
2023-04-08T22:49:22.979Z,22.05
2023-04-08T22:51:49.629Z,23.52
2023-04-08T22:54:16.386Z,22.77
2023-04-08T22:56:43.050Z,22.95
2023-04-08T22:59:09.696Z,21.75
2023-04-08T23:01:37.439Z,20.38
2023-04-08T23:04:04.428Z,21.83
2023-04-08T23:06:31.300Z,22.85
2023-04-08T23:08:58.170Z,24.70
2023-04-08T23:11:24.841Z,24.17
2023-04-08T23:13:51.645Z,24.98
2023-04-08T23:16:19.464Z,24.90
2023-04-08T23:18:46.125Z,25.07
2023-04-08T23:21:14.917Z,25.00
2023-04-08T23:23:41.635Z,24.80
2023-04-08T23:26:16.173Z,24.58
2023-04-08T23:28:42.867Z,26.88
2023-04-08T23:31:09.545Z,25.30
2023-04-08T23:33:36.221Z,26.73
2023-04-08T23:36:12.387Z,27.15
2023-04-08T23:38:39.095Z,28.42
2023-04-08T23:41:07.076Z,30.35
2023-04-08T23:43:34.404Z,29.83
2023-04-08T23:46:01.149Z,31.55
2023-04-08T23:48:28.008Z,30.92
2023-04-08T23:50:55.493Z,32.10
2023-04-08T23:53:22.293Z,31.73
2023-04-08T23:55:50.274Z,33.15
2023-04-08T23:58:17.073Z,32.55
